sensor_id;sensor_type;location;lat;lon;timestamp;P1;durP1;ratioP1;P2;durP2;ratioP2
8592;SDS011;4334;49.982;8.398;2022-12-11T00:00:36;45.87;;;20.13;;
8592;SDS011;4334;49.982;8.398;2022-12-11T00:03:03;39.80;;;19.03;;
8592;SDS011;4334;49.982;8.398;2022-12-11T00:05:30;40.87;;;19.87;;
8592;SDS011;4334;49.982;8.398;2022-12-11T00:07:58;41.53;;;19.77;;
8592;SDS011;4334;49.982;8.398;2022-12-11T00:10:25;40.70;;;18.83;;
8592;SDS011;4334;49.982;8.398;2022-12-11T00:12:53;45.07;;;19.07;;
8592;SDS011;4334;49.982;8.398;2022-12-11T00:15:20;43.33;;;19.00;;
8592;SDS011;4334;49.982;8.398;2022-12-11T00:17:47;38.97;;;19.47;;
8592;SDS011;4334;49.982;8.398;2022-12-11T00:20:13;40.13;;;18.60;;
8592;SDS011;4334;49.982;8.398;2022-12-11T00:22:41;38.53;;;19.63;;
8592;SDS011;4334;49.982;8.398;2022-12-11T00:25:08;39.63;;;18.70;;
8592;SDS011;4334;49.982;8.398;2022-12-11T00:27:35;39.20;;;19.53;;
8592;SDS011;4334;49.982;8.398;2022-12-11T00:30:03;41.33;;;19.73;;
8592;SDS011;4334;49.982;8.398;2022-12-11T00:32:31;44.73;;;21.80;;
8592;SDS011;4334;49.982;8.398;2022-12-11T00:34:58;44.17;;;20.87;;
8592;SDS011;4334;49.982;8.398;2022-12-11T00:37:25;41.73;;;21.27;;
8592;SDS011;4334;49.982;8.398;2022-12-11T00:39:52;41.70;;;19.93;;
8592;SDS011;4334;49.982;8.398;2022-12-11T00:42:19;43.80;;;21.17;;
8592;SDS011;4334;49.982;8.398;2022-12-11T00:44:46;45.83;;;20.10;;
8592;SDS011;4334;49.982;8.398;2022-12-11T00:47:14;38.27;;;19.13;;
8592;SDS011;4334;49.982;8.398;2022-12-11T00:49:41;40.47;;;20.60;;
8592;SDS011;4334;49.982;8.398;2022-12-11T00:52:08;39.80;;;19.23;;
8592;SDS011;4334;49.982;8.398;2022-12-11T00:54:35;40.17;;;19.17;;
8592;SDS011;4334;49.982;8.398;2022-12-11T00:57:01;40.83;;;19.50;;
8592;SDS011;4334;49.982;8.398;2022-12-11T00:59:28;41.30;;;20.97;;
8592;SDS011;4334;49.982;8.398;2022-12-11T01:01:55;39.70;;;19.43;;
8592;SDS011;4334;49.982;8.398;2022-12-11T01:04:23;38.43;;;19.30;;
8592;SDS011;4334;49.982;8.398;2022-12-11T01:06:50;36.53;;;18.87;;
8592;SDS011;4334;49.982;8.398;2022-12-11T01:09:17;39.30;;;19.70;;
8592;SDS011;4334;49.982;8.398;2022-12-11T01:12:02;41.67;;;18.90;;
8592;SDS011;4334;49.982;8.398;2022-12-11T01:14:29;39.50;;;19.80;;
8592;SDS011;4334;49.982;8.398;2022-12-11T01:16:56;41.73;;;20.73;;
8592;SDS011;4334;49.982;8.398;2022-12-11T01:19:24;39.83;;;19.43;;
8592;SDS011;4334;49.982;8.398;2022-12-11T01:21:51;42.70;;;19.47;;
8592;SDS011;4334;49.982;8.398;2022-12-11T01:24:18;41.70;;;19.57;;
8592;SDS011;4334;49.982;8.398;2022-12-11T01:26:44;42.00;;;21.27;;
8592;SDS011;4334;49.982;8.398;2022-12-11T01:29:12;42.27;;;20.47;;
8592;SDS011;4334;49.982;8.398;2022-12-11T01:31:39;39.33;;;20.60;;
8592;SDS011;4334;49.982;8.398;2022-12-11T01:34:06;45.80;;;21.70;;
8592;SDS011;4334;49.982;8.398;2022-12-11T01:36:34;45.73;;;21.30;;
8592;SDS011;4334;49.982;8.398;2022-12-11T01:39:01;43.73;;;21.30;;
8592;SDS011;4334;49.982;8.398;2022-12-11T01:41:28;39.67;;;20.77;;
8592;SDS011;4334;49.982;8.398;2022-12-11T01:43:55;39.40;;;20.97;;
8592;SDS011;4334;49.982;8.398;2022-12-11T01:46:24;47.27;;;22.23;;
8592;SDS011;4334;49.982;8.398;2022-12-11T01:48:51;45.37;;;22.17;;
8592;SDS011;4334;49.982;8.398;2022-12-11T01:51:19;45.93;;;21.53;;
8592;SDS011;4334;49.982;8.398;2022-12-11T01:53:49;45.53;;;22.37;;
8592;SDS011;4334;49.982;8.398;2022-12-11T01:56:19;44.47;;;21.00;;
8592;SDS011;4334;49.982;8.398;2022-12-11T01:58:48;48.07;;;22.27;;
8592;SDS011;4334;49.982;8.398;2022-12-11T02:01:19;42.73;;;21.00;;
8592;SDS011;4334;49.982;8.398;2022-12-11T02:03:51;42.03;;;21.77;;
8592;SDS011;4334;49.982;8.398;2022-12-11T02:06:32;41.33;;;21.07;;
8592;SDS011;4334;49.982;8.398;2022-12-11T02:09:02;38.03;;;20.33;;
8592;SDS011;4334;49.982;8.398;2022-12-11T02:11:33;47.77;;;23.30;;
8592;SDS011;4334;49.982;8.398;2022-12-11T02:14:08;47.27;;;23.47;;
8592;SDS011;4334;49.982;8.398;2022-12-11T02:16:44;47.97;;;22.97;;
8592;SDS011;4334;49.982;8.398;2022-12-11T02:19:17;44.93;;;22.50;;
8592;SDS011;4334;49.982;8.398;2022-12-11T02:21:54;43.43;;;22.50;;
8592;SDS011;4334;49.982;8.398;2022-12-11T02:24:34;44.67;;;22.30;;
8592;SDS011;4334;49.982;8.398;2022-12-11T02:27:19;42.80;;;21.17;;
8592;SDS011;4334;49.982;8.398;2022-12-11T02:29:56;42.87;;;22.00;;
8592;SDS011;4334;49.982;8.398;2022-12-11T02:32:29;45.83;;;23.33;;
8592;SDS011;4334;49.982;8.398;2022-12-11T02:35:02;45.77;;;23.10;;
8592;SDS011;4334;49.982;8.398;2022-12-11T02:37:35;46.33;;;22.07;;
8592;SDS011;4334;49.982;8.398;2022-12-11T02:40:05;43.77;;;22.97;;
8592;SDS011;4334;49.982;8.398;2022-12-11T02:42:36;46.67;;;23.17;;
8592;SDS011;4334;49.982;8.398;2022-12-11T02:45:07;50.57;;;24.87;;
8592;SDS011;4334;49.982;8.398;2022-12-11T02:47:36;45.57;;;23.27;;
8592;SDS011;4334;49.982;8.398;2022-12-11T02:50:06;52.63;;;24.50;;
8592;SDS011;4334;49.982;8.398;2022-12-11T02:52:36;47.40;;;23.33;;
8592;SDS011;4334;49.982;8.398;2022-12-11T02:55:06;49.00;;;24.30;;
8592;SDS011;4334;49.982;8.398;2022-12-11T02:57:36;47.40;;;23.80;;
8592;SDS011;4334;49.982;8.398;2022-12-11T03:00:11;46.83;;;23.80;;
8592;SDS011;4334;49.982;8.398;2022-12-11T03:02:40;48.23;;;22.57;;
8592;SDS011;4334;49.982;8.398;2022-12-11T03:05:08;51.80;;;24.67;;
8592;SDS011;4334;49.982;8.398;2022-12-11T03:07:36;54.17;;;25.60;;
8592;SDS011;4334;49.982;8.398;2022-12-11T03:10:05;50.33;;;24.67;;
8592;SDS011;4334;49.982;8.398;2022-12-11T03:12:36;51.03;;;24.47;;
8592;SDS011;4334;49.982;8.398;2022-12-11T03:15:06;49.00;;;23.73;;
8592;SDS011;4334;49.982;8.398;2022-12-11T03:17:37;49.47;;;23.93;;
8592;SDS011;4334;49.982;8.398;2022-12-11T03:20:14;51.43;;;24.33;;
8592;SDS011;4334;49.982;8.398;2022-12-11T03:22:47;55.90;;;25.70;;
8592;SDS011;4334;49.982;8.398;2022-12-11T03:25:21;63.03;;;26.80;;
8592;SDS011;4334;49.982;8.398;2022-12-11T03:27:52;53.70;;;26.33;;
8592;SDS011;4334;49.982;8.398;2022-12-11T03:30:24;61.77;;;26.10;;
8592;SDS011;4334;49.982;8.398;2022-12-11T03:32:54;56.07;;;24.63;;
8592;SDS011;4334;49.982;8.398;2022-12-11T03:35:24;60.57;;;26.87;;
8592;SDS011;4334;49.982;8.398;2022-12-11T03:37:55;48.10;;;24.77;;
8592;SDS011;4334;49.982;8.398;2022-12-11T03:40:26;54.33;;;25.03;;
8592;SDS011;4334;49.982;8.398;2022-12-11T03:42:56;59.63;;;26.30;;
8592;SDS011;4334;49.982;8.398;2022-12-11T03:45:26;53.00;;;24.77;;
8592;SDS011;4334;49.982;8.398;2022-12-11T03:47:55;59.57;;;26.10;;
8592;SDS011;4334;49.982;8.398;2022-12-11T03:50:24;53.37;;;25.43;;
8592;SDS011;4334;49.982;8.398;2022-12-11T03:52:55;50.07;;;24.90;;
8592;SDS011;4334;49.982;8.398;2022-12-11T03:55:23;53.37;;;25.37;;
8592;SDS011;4334;49.982;8.398;2022-12-11T03:57:51;52.37;;;25.03;;
8592;SDS011;4334;49.982;8.398;2022-12-11T04:00:18;53.43;;;26.20;;
8592;SDS011;4334;49.982;8.398;2022-12-11T04:02:47;53.43;;;25.83;;
8592;SDS011;4334;49.982;8.398;2022-12-11T04:05:34;54.43;;;25.10;;
8592;SDS011;4334;49.982;8.398;2022-12-11T04:08:01;54.93;;;25.67;;
8592;SDS011;4334;49.982;8.398;2022-12-11T04:10:28;56.00;;;26.73;;
8592;SDS011;4334;49.982;8.398;2022-12-11T04:12:55;49.67;;;25.07;;
8592;SDS011;4334;49.982;8.398;2022-12-11T04:15:22;52.13;;;25.20;;
8592;SDS011;4334;49.982;8.398;2022-12-11T04:17:49;53.40;;;26.20;;
8592;SDS011;4334;49.982;8.398;2022-12-11T04:20:30;55.53;;;26.73;;
8592;SDS011;4334;49.982;8.398;2022-12-11T04:23:29;55.03;;;26.23;;
8592;SDS011;4334;49.982;8.398;2022-12-11T04:26:15;55.30;;;25.73;;
8592;SDS011;4334;49.982;8.398;2022-12-11T04:28:43;58.73;;;27.83;;
8592;SDS011;4334;49.982;8.398;2022-12-11T04:31:12;58.37;;;25.27;;
8592;SDS011;4334;49.982;8.398;2022-12-11T04:33:41;56.03;;;26.77;;
8592;SDS011;4334;49.982;8.398;2022-12-11T04:36:08;54.83;;;26.60;;
8592;SDS011;4334;49.982;8.398;2022-12-11T04:38:36;49.77;;;24.90;;
8592;SDS011;4334;49.982;8.398;2022-12-11T04:41:04;55.70;;;26.60;;
8592;SDS011;4334;49.982;8.398;2022-12-11T04:43:33;55.93;;;26.70;;
8592;SDS011;4334;49.982;8.398;2022-12-11T04:46:00;56.37;;;26.53;;
8592;SDS011;4334;49.982;8.398;2022-12-11T04:48:28;58.57;;;27.90;;
8592;SDS011;4334;49.982;8.398;2022-12-11T04:50:56;59.20;;;27.00;;
8592;SDS011;4334;49.982;8.398;2022-12-11T04:53:24;55.80;;;27.30;;
8592;SDS011;4334;49.982;8.398;2022-12-11T04:55:51;65.77;;;27.80;;
8592;SDS011;4334;49.982;8.398;2022-12-11T04:58:18;62.07;;;29.30;;
8592;SDS011;4334;49.982;8.398;2022-12-11T05:00:45;59.53;;;28.00;;
8592;SDS011;4334;49.982;8.398;2022-12-11T05:03:12;60.43;;;28.27;;
8592;SDS011;4334;49.982;8.398;2022-12-11T05:05:39;57.00;;;28.77;;
8592;SDS011;4334;49.982;8.398;2022-12-11T05:08:08;58.20;;;29.33;;
8592;SDS011;4334;49.982;8.398;2022-12-11T05:10:34;61.73;;;29.87;;
8592;SDS011;4334;49.982;8.398;2022-12-11T05:13:01;62.03;;;28.77;;
8592;SDS011;4334;49.982;8.398;2022-12-11T05:15:28;59.97;;;28.27;;
8592;SDS011;4334;49.982;8.398;2022-12-11T05:17:55;62.50;;;29.27;;
8592;SDS011;4334;49.982;8.398;2022-12-11T05:20:22;57.67;;;27.93;;
8592;SDS011;4334;49.982;8.398;2022-12-11T05:22:49;60.33;;;27.90;;
8592;SDS011;4334;49.982;8.398;2022-12-11T05:25:17;57.03;;;27.03;;
8592;SDS011;4334;49.982;8.398;2022-12-11T05:27:44;60.53;;;28.43;;
8592;SDS011;4334;49.982;8.398;2022-12-11T05:30:11;57.83;;;28.27;;
8592;SDS011;4334;49.982;8.398;2022-12-11T05:32:38;61.03;;;28.33;;
8592;SDS011;4334;49.982;8.398;2022-12-11T05:35:05;59.70;;;28.10;;
8592;SDS011;4334;49.982;8.398;2022-12-11T05:37:32;61.67;;;28.47;;
8592;SDS011;4334;49.982;8.398;2022-12-11T05:39:59;60.73;;;28.53;;
8592;SDS011;4334;49.982;8.398;2022-12-11T05:42:27;62.80;;;30.20;;
8592;SDS011;4334;49.982;8.398;2022-12-11T05:44:54;59.47;;;28.53;;
8592;SDS011;4334;49.982;8.398;2022-12-11T05:47:21;60.07;;;28.17;;
8592;SDS011;4334;49.982;8.398;2022-12-11T05:49:48;60.13;;;27.97;;
8592;SDS011;4334;49.982;8.398;2022-12-11T05:52:15;58.70;;;27.87;;
8592;SDS011;4334;49.982;8.398;2022-12-11T05:54:42;59.70;;;26.87;;
8592;SDS011;4334;49.982;8.398;2022-12-11T05:57:09;62.07;;;27.93;;
8592;SDS011;4334;49.982;8.398;2022-12-11T05:59:37;59.03;;;27.77;;
8592;SDS011;4334;49.982;8.398;2022-12-11T06:02:04;58.47;;;28.10;;
8592;SDS011;4334;49.982;8.398;2022-12-11T06:04:31;60.73;;;27.40;;
8592;SDS011;4334;49.982;8.398;2022-12-11T06:06:58;63.90;;;28.67;;
8592;SDS011;4334;49.982;8.398;2022-12-11T06:09:25;61.00;;;28.53;;
8592;SDS011;4334;49.982;8.398;2022-12-11T06:11:52;57.63;;;29.37;;
8592;SDS011;4334;49.982;8.398;2022-12-11T06:14:19;60.27;;;28.60;;
8592;SDS011;4334;49.982;8.398;2022-12-11T06:16:48;61.67;;;28.60;;
8592;SDS011;4334;49.982;8.398;2022-12-11T06:19:15;60.10;;;29.33;;
8592;SDS011;4334;49.982;8.398;2022-12-11T06:21:43;57.53;;;28.00;;
8592;SDS011;4334;49.982;8.398;2022-12-11T06:24:13;63.90;;;28.90;;
8592;SDS011;4334;49.982;8.398;2022-12-11T06:26:39;62.67;;;29.43;;
8592;SDS011;4334;49.982;8.398;2022-12-11T06:29:06;60.30;;;27.47;;
8592;SDS011;4334;49.982;8.398;2022-12-11T06:31:34;53.80;;;27.63;;
8592;SDS011;4334;49.982;8.398;2022-12-11T06:34:02;60.80;;;28.97;;
8592;SDS011;4334;49.982;8.398;2022-12-11T06:36:30;62.63;;;28.20;;
8592;SDS011;4334;49.982;8.398;2022-12-11T06:38:57;60.60;;;28.40;;
8592;SDS011;4334;49.982;8.398;2022-12-11T06:41:23;57.27;;;28.70;;
8592;SDS011;4334;49.982;8.398;2022-12-11T06:43:50;58.40;;;29.33;;
8592;SDS011;4334;49.982;8.398;2022-12-11T06:46:17;55.30;;;29.00;;
8592;SDS011;4334;49.982;8.398;2022-12-11T06:48:45;58.93;;;28.57;;
8592;SDS011;4334;49.982;8.398;2022-12-11T06:51:15;61.37;;;28.60;;
8592;SDS011;4334;49.982;8.398;2022-12-11T06:53:43;62.80;;;29.37;;
8592;SDS011;4334;49.982;8.398;2022-12-11T06:56:12;58.23;;;29.90;;
8592;SDS011;4334;49.982;8.398;2022-12-11T06:58:40;56.30;;;28.77;;
8592;SDS011;4334;49.982;8.398;2022-12-11T07:01:12;59.30;;;28.67;;
8592;SDS011;4334;49.982;8.398;2022-12-11T07:03:41;57.20;;;27.63;;
8592;SDS011;4334;49.982;8.398;2022-12-11T07:06:08;61.00;;;28.43;;
8592;SDS011;4334;49.982;8.398;2022-12-11T07:08:37;56.73;;;27.30;;
8592;SDS011;4334;49.982;8.398;2022-12-11T07:11:04;60.20;;;28.73;;
8592;SDS011;4334;49.982;8.398;2022-12-11T07:13:32;51.57;;;25.33;;
8592;SDS011;4334;49.982;8.398;2022-12-11T07:15:59;55.70;;;27.67;;
8592;SDS011;4334;49.982;8.398;2022-12-11T07:18:28;55.40;;;26.53;;
8592;SDS011;4334;49.982;8.398;2022-12-11T07:20:57;55.90;;;28.00;;
8592;SDS011;4334;49.982;8.398;2022-12-11T07:23:24;57.77;;;28.07;;
8592;SDS011;4334;49.982;8.398;2022-12-11T07:25:53;55.87;;;27.00;;
8592;SDS011;4334;49.982;8.398;2022-12-11T07:28:20;57.67;;;27.10;;
8592;SDS011;4334;49.982;8.398;2022-12-11T07:30:47;56.60;;;28.87;;
8592;SDS011;4334;49.982;8.398;2022-12-11T07:33:14;56.47;;;28.53;;
8592;SDS011;4334;49.982;8.398;2022-12-11T07:35:41;52.70;;;26.67;;
8592;SDS011;4334;49.982;8.398;2022-12-11T07:38:08;58.20;;;27.97;;
8592;SDS011;4334;49.982;8.398;2022-12-11T07:40:35;51.83;;;27.67;;
8592;SDS011;4334;49.982;8.398;2022-12-11T07:43:05;59.83;;;28.23;;
8592;SDS011;4334;49.982;8.398;2022-12-11T07:45:32;53.87;;;27.47;;
8592;SDS011;4334;49.982;8.398;2022-12-11T07:47:59;57.13;;;26.60;;
8592;SDS011;4334;49.982;8.398;2022-12-11T07:50:26;57.23;;;28.43;;
8592;SDS011;4334;49.982;8.398;2022-12-11T07:52:53;51.63;;;26.73;;
8592;SDS011;4334;49.982;8.398;2022-12-11T07:55:20;51.03;;;25.33;;
8592;SDS011;4334;49.982;8.398;2022-12-11T07:57:46;53.37;;;26.20;;
8592;SDS011;4334;49.982;8.398;2022-12-11T08:00:15;49.40;;;25.87;;
8592;SDS011;4334;49.982;8.398;2022-12-11T08:02:42;47.60;;;25.57;;
8592;SDS011;4334;49.982;8.398;2022-12-11T08:05:09;52.07;;;25.87;;
8592;SDS011;4334;49.982;8.398;2022-12-11T08:07:37;46.83;;;25.20;;
8592;SDS011;4334;49.982;8.398;2022-12-11T08:10:04;46.67;;;24.90;;
8592;SDS011;4334;49.982;8.398;2022-12-11T08:12:31;48.27;;;26.03;;
8592;SDS011;4334;49.982;8.398;2022-12-11T08:14:58;46.70;;;23.93;;
8592;SDS011;4334;49.982;8.398;2022-12-11T08:17:26;46.70;;;25.40;;
8592;SDS011;4334;49.982;8.398;2022-12-11T08:19:53;48.17;;;24.93;;
8592;SDS011;4334;49.982;8.398;2022-12-11T08:22:20;43.97;;;22.93;;
8592;SDS011;4334;49.982;8.398;2022-12-11T08:24:47;45.10;;;23.07;;
8592;SDS011;4334;49.982;8.398;2022-12-11T08:27:14;43.27;;;24.07;;
8592;SDS011;4334;49.982;8.398;2022-12-11T08:29:41;43.37;;;22.83;;
8592;SDS011;4334;49.982;8.398;2022-12-11T08:32:09;42.00;;;22.40;;
8592;SDS011;4334;49.982;8.398;2022-12-11T08:34:39;41.67;;;22.17;;
8592;SDS011;4334;49.982;8.398;2022-12-11T08:37:06;39.33;;;22.03;;
8592;SDS011;4334;49.982;8.398;2022-12-11T08:39:33;40.47;;;22.73;;
8592;SDS011;4334;49.982;8.398;2022-12-11T08:42:00;39.57;;;22.03;;
8592;SDS011;4334;49.982;8.398;2022-12-11T08:44:27;42.63;;;22.70;;
8592;SDS011;4334;49.982;8.398;2022-12-11T08:46:57;41.93;;;22.47;;
8592;SDS011;4334;49.982;8.398;2022-12-11T08:49:24;44.47;;;22.77;;
8592;SDS011;4334;49.982;8.398;2022-12-11T08:51:53;39.57;;;22.30;;
8592;SDS011;4334;49.982;8.398;2022-12-11T08:54:20;47.63;;;24.90;;
8592;SDS011;4334;49.982;8.398;2022-12-11T08:56:47;48.80;;;24.23;;
8592;SDS011;4334;49.982;8.398;2022-12-11T08:59:14;42.53;;;23.23;;
8592;SDS011;4334;49.982;8.398;2022-12-11T09:01:43;42.27;;;22.47;;
8592;SDS011;4334;49.982;8.398;2022-12-11T09:04:09;43.17;;;22.40;;
8592;SDS011;4334;49.982;8.398;2022-12-11T09:06:36;47.07;;;23.53;;
8592;SDS011;4334;49.982;8.398;2022-12-11T09:09:04;42.60;;;23.43;;
8592;SDS011;4334;49.982;8.398;2022-12-11T09:11:33;45.57;;;24.37;;
8592;SDS011;4334;49.982;8.398;2022-12-11T09:14:02;41.83;;;22.97;;
8592;SDS011;4334;49.982;8.398;2022-12-11T09:16:30;46.30;;;24.30;;
8592;SDS011;4334;49.982;8.398;2022-12-11T09:18:58;44.80;;;23.50;;
8592;SDS011;4334;49.982;8.398;2022-12-11T09:21:26;41.13;;;23.40;;
8592;SDS011;4334;49.982;8.398;2022-12-11T09:23:55;40.20;;;23.00;;
8592;SDS011;4334;49.982;8.398;2022-12-11T09:26:25;41.87;;;22.53;;
8592;SDS011;4334;49.982;8.398;2022-12-11T09:28:53;40.47;;;22.90;;
8592;SDS011;4334;49.982;8.398;2022-12-11T09:31:21;38.67;;;21.53;;
8592;SDS011;4334;49.982;8.398;2022-12-11T09:33:50;38.73;;;22.47;;
8592;SDS011;4334;49.982;8.398;2022-12-11T09:36:19;39.40;;;21.20;;
8592;SDS011;4334;49.982;8.398;2022-12-11T09:38:46;39.63;;;21.40;;
8592;SDS011;4334;49.982;8.398;2022-12-11T09:41:24;40.07;;;21.13;;
8592;SDS011;4334;49.982;8.398;2022-12-11T09:44:01;36.37;;;21.17;;
8592;SDS011;4334;49.982;8.398;2022-12-11T09:46:41;39.17;;;22.60;;
8592;SDS011;4334;49.982;8.398;2022-12-11T09:49:14;40.30;;;22.57;;
8592;SDS011;4334;49.982;8.398;2022-12-11T09:51:50;39.57;;;21.77;;
8592;SDS011;4334;49.982;8.398;2022-12-11T09:54:25;41.17;;;22.50;;
8592;SDS011;4334;49.982;8.398;2022-12-11T09:56:55;39.77;;;22.10;;
8592;SDS011;4334;49.982;8.398;2022-12-11T09:59:32;43.90;;;22.63;;
8592;SDS011;4334;49.982;8.398;2022-12-11T10:02:10;40.67;;;22.53;;
8592;SDS011;4334;49.982;8.398;2022-12-11T10:04:49;40.53;;;21.17;;
8592;SDS011;4334;49.982;8.398;2022-12-11T10:07:26;40.03;;;21.63;;
8592;SDS011;4334;49.982;8.398;2022-12-11T10:10:01;39.93;;;22.20;;
8592;SDS011;4334;49.982;8.398;2022-12-11T10:12:40;42.23;;;22.37;;
8592;SDS011;4334;49.982;8.398;2022-12-11T10:15:18;42.63;;;22.30;;
8592;SDS011;4334;49.982;8.398;2022-12-11T10:17:58;41.10;;;22.30;;
8592;SDS011;4334;49.982;8.398;2022-12-11T10:20:27;45.10;;;22.63;;
8592;SDS011;4334;49.982;8.398;2022-12-11T10:22:59;42.63;;;23.03;;
8592;SDS011;4334;49.982;8.398;2022-12-11T10:25:28;42.77;;;23.27;;
8592;SDS011;4334;49.982;8.398;2022-12-11T10:27:58;42.37;;;22.53;;
8592;SDS011;4334;49.982;8.398;2022-12-11T10:30:35;42.37;;;22.97;;
8592;SDS011;4334;49.982;8.398;2022-12-11T10:33:05;44.17;;;22.70;;
8592;SDS011;4334;49.982;8.398;2022-12-11T10:35:44;46.07;;;23.20;;
8592;SDS011;4334;49.982;8.398;2022-12-11T10:38:15;47.10;;;23.63;;
8592;SDS011;4334;49.982;8.398;2022-12-11T10:40:48;47.90;;;22.50;;
8592;SDS011;4334;49.982;8.398;2022-12-11T10:43:17;44.07;;;23.30;;
8592;SDS011;4334;49.982;8.398;2022-12-11T10:45:51;43.97;;;23.07;;
8592;SDS011;4334;49.982;8.398;2022-12-11T10:48:18;42.17;;;22.17;;
8592;SDS011;4334;49.982;8.398;2022-12-11T10:50:53;43.03;;;22.80;;
8592;SDS011;4334;49.982;8.398;2022-12-11T10:53:23;44.03;;;22.70;;
8592;SDS011;4334;49.982;8.398;2022-12-11T10:55:50;41.87;;;22.50;;
8592;SDS011;4334;49.982;8.398;2022-12-11T10:58:19;51.90;;;21.93;;
8592;SDS011;4334;49.982;8.398;2022-12-11T11:00:56;38.57;;;20.03;;
8592;SDS011;4334;49.982;8.398;2022-12-11T11:03:29;39.60;;;22.17;;
8592;SDS011;4334;49.982;8.398;2022-12-11T11:06:01;41.00;;;22.33;;
8592;SDS011;4334;49.982;8.398;2022-12-11T11:08:39;39.23;;;21.50;;
8592;SDS011;4334;49.982;8.398;2022-12-11T11:11:12;38.87;;;21.20;;
8592;SDS011;4334;49.982;8.398;2022-12-11T11:13:49;39.73;;;20.53;;
8592;SDS011;4334;49.982;8.398;2022-12-11T11:16:17;38.10;;;20.80;;
8592;SDS011;4334;49.982;8.398;2022-12-11T11:18:50;36.07;;;20.00;;
8592;SDS011;4334;49.982;8.398;2022-12-11T11:21:19;38.00;;;20.57;;
8592;SDS011;4334;49.982;8.398;2022-12-11T11:23:49;36.70;;;20.70;;
8592;SDS011;4334;49.982;8.398;2022-12-11T11:26:16;38.90;;;19.83;;
8592;SDS011;4334;49.982;8.398;2022-12-11T11:28:46;38.80;;;21.97;;
8592;SDS011;4334;49.982;8.398;2022-12-11T11:31:15;40.67;;;21.10;;
8592;SDS011;4334;49.982;8.398;2022-12-11T11:33:44;42.90;;;20.57;;
8592;SDS011;4334;49.982;8.398;2022-12-11T11:36:18;38.77;;;20.63;;
8592;SDS011;4334;49.982;8.398;2022-12-11T11:38:47;37.10;;;20.97;;
8592;SDS011;4334;49.982;8.398;2022-12-11T11:41:23;40.17;;;20.43;;
8592;SDS011;4334;49.982;8.398;2022-12-11T11:43:55;40.07;;;21.90;;
8592;SDS011;4334;49.982;8.398;2022-12-11T11:46:26;38.30;;;21.10;;
8592;SDS011;4334;49.982;8.398;2022-12-11T11:49:03;34.57;;;19.70;;
8592;SDS011;4334;49.982;8.398;2022-12-11T11:51:38;35.30;;;19.20;;
8592;SDS011;4334;49.982;8.398;2022-12-11T11:54:14;38.67;;;20.87;;
8592;SDS011;4334;49.982;8.398;2022-12-11T11:56:50;36.03;;;19.73;;
8592;SDS011;4334;49.982;8.398;2022-12-11T11:59:20;38.03;;;19.90;;
8592;SDS011;4334;49.982;8.398;2022-12-11T12:01:53;35.77;;;20.23;;
8592;SDS011;4334;49.982;8.398;2022-12-11T12:04:21;34.47;;;19.63;;
8592;SDS011;4334;49.982;8.398;2022-12-11T12:06:55;40.63;;;21.23;;
8592;SDS011;4334;49.982;8.398;2022-12-11T12:09:33;48.00;;;21.80;;
8592;SDS011;4334;49.982;8.398;2022-12-11T12:12:13;41.30;;;21.27;;
8592;SDS011;4334;49.982;8.398;2022-12-11T12:14:50;44.17;;;22.03;;
8592;SDS011;4334;49.982;8.398;2022-12-11T12:17:30;43.37;;;21.67;;
8592;SDS011;4334;49.982;8.398;2022-12-11T12:20:08;40.10;;;22.40;;
8592;SDS011;4334;49.982;8.398;2022-12-11T12:22:46;43.50;;;22.60;;
8592;SDS011;4334;49.982;8.398;2022-12-11T12:25:34;43.43;;;22.00;;
8592;SDS011;4334;49.982;8.398;2022-12-11T12:28:09;40.37;;;20.57;;
8592;SDS011;4334;49.982;8.398;2022-12-11T12:30:49;40.83;;;21.07;;
8592;SDS011;4334;49.982;8.398;2022-12-11T12:33:33;43.13;;;22.37;;
8592;SDS011;4334;49.982;8.398;2022-12-11T12:36:10;44.93;;;24.03;;
8592;SDS011;4334;49.982;8.398;2022-12-11T12:38:45;41.63;;;22.03;;
8592;SDS011;4334;49.982;8.398;2022-12-11T12:41:19;47.93;;;24.00;;
8592;SDS011;4334;49.982;8.398;2022-12-11T12:46:45;43.40;;;23.03;;
8592;SDS011;4334;49.982;8.398;2022-12-11T12:49:22;44.00;;;23.73;;
8592;SDS011;4334;49.982;8.398;2022-12-11T12:51:59;46.03;;;23.43;;
8592;SDS011;4334;49.982;8.398;2022-12-11T12:54:28;41.87;;;22.30;;
8592;SDS011;4334;49.982;8.398;2022-12-11T12:56:56;44.13;;;22.40;;
8592;SDS011;4334;49.982;8.398;2022-12-11T12:59:26;46.70;;;24.40;;
8592;SDS011;4334;49.982;8.398;2022-12-11T13:01:53;48.60;;;25.90;;
8592;SDS011;4334;49.982;8.398;2022-12-11T13:04:37;45.73;;;22.67;;
8592;SDS011;4334;49.982;8.398;2022-12-11T13:07:15;40.93;;;22.13;;
8592;SDS011;4334;49.982;8.398;2022-12-11T13:09:54;44.03;;;20.93;;
8592;SDS011;4334;49.982;8.398;2022-12-11T13:12:28;42.13;;;21.77;;
8592;SDS011;4334;49.982;8.398;2022-12-11T13:17:53;42.33;;;21.63;;
8592;SDS011;4334;49.982;8.398;2022-12-11T13:20:22;42.57;;;21.47;;
8592;SDS011;4334;49.982;8.398;2022-12-11T13:22:52;43.90;;;23.17;;
8592;SDS011;4334;49.982;8.398;2022-12-11T13:25:24;44.47;;;22.20;;
8592;SDS011;4334;49.982;8.398;2022-12-11T13:28:03;42.43;;;22.77;;
8592;SDS011;4334;49.982;8.398;2022-12-11T13:30:30;47.43;;;23.40;;
8592;SDS011;4334;49.982;8.398;2022-12-11T13:33:00;47.13;;;23.07;;
8592;SDS011;4334;49.982;8.398;2022-12-11T13:35:31;44.33;;;22.17;;
8592;SDS011;4334;49.982;8.398;2022-12-11T13:38:00;46.10;;;23.30;;
8592;SDS011;4334;49.982;8.398;2022-12-11T13:40:36;42.83;;;22.00;;
8592;SDS011;4334;49.982;8.398;2022-12-11T13:43:05;42.40;;;22.17;;
8592;SDS011;4334;49.982;8.398;2022-12-11T13:45:42;44.37;;;22.53;;
8592;SDS011;4334;49.982;8.398;2022-12-11T13:48:15;40.17;;;21.60;;
8592;SDS011;4334;49.982;8.398;2022-12-11T13:50:47;47.70;;;22.67;;
8592;SDS011;4334;49.982;8.398;2022-12-11T13:53:17;39.07;;;21.50;;
8592;SDS011;4334;49.982;8.398;2022-12-11T13:55:45;39.90;;;20.73;;
8592;SDS011;4334;49.982;8.398;2022-12-11T13:58:21;39.37;;;21.70;;
8592;SDS011;4334;49.982;8.398;2022-12-11T14:00:53;38.73;;;20.93;;
8592;SDS011;4334;49.982;8.398;2022-12-11T14:03:27;42.17;;;20.80;;
8592;SDS011;4334;49.982;8.398;2022-12-11T14:05:57;43.43;;;21.93;;
8592;SDS011;4334;49.982;8.398;2022-12-11T14:08:26;38.73;;;20.73;;
8592;SDS011;4334;49.982;8.398;2022-12-11T14:10:58;41.50;;;21.77;;
8592;SDS011;4334;49.982;8.398;2022-12-11T14:13:26;44.70;;;21.33;;
8592;SDS011;4334;49.982;8.398;2022-12-11T14:15:58;42.37;;;22.80;;
8592;SDS011;4334;49.982;8.398;2022-12-11T14:18:26;40.50;;;21.10;;
8592;SDS011;4334;49.982;8.398;2022-12-11T14:20:58;42.77;;;22.37;;
8592;SDS011;4334;49.982;8.398;2022-12-11T14:23:27;38.80;;;21.20;;
8592;SDS011;4334;49.982;8.398;2022-12-11T14:25:56;40.23;;;21.40;;
8592;SDS011;4334;49.982;8.398;2022-12-11T14:28:24;41.40;;;20.97;;
8592;SDS011;4334;49.982;8.398;2022-12-11T14:30:56;40.27;;;21.43;;
8592;SDS011;4334;49.982;8.398;2022-12-11T14:33:26;41.00;;;21.47;;
8592;SDS011;4334;49.982;8.398;2022-12-11T14:35:57;39.03;;;19.50;;
8592;SDS011;4334;49.982;8.398;2022-12-11T14:38:27;45.43;;;23.50;;
8592;SDS011;4334;49.982;8.398;2022-12-11T14:40:59;40.77;;;20.87;;
8592;SDS011;4334;49.982;8.398;2022-12-11T14:43:34;42.53;;;22.07;;
8592;SDS011;4334;49.982;8.398;2022-12-11T14:46:05;39.03;;;21.47;;
8592;SDS011;4334;49.982;8.398;2022-12-11T14:48:37;40.10;;;21.03;;
8592;SDS011;4334;49.982;8.398;2022-12-11T14:51:11;42.63;;;21.33;;
8592;SDS011;4334;49.982;8.398;2022-12-11T14:53:42;42.13;;;21.17;;
8592;SDS011;4334;49.982;8.398;2022-12-11T14:56:15;41.87;;;22.20;;
8592;SDS011;4334;49.982;8.398;2022-12-11T14:58:45;38.93;;;21.83;;
8592;SDS011;4334;49.982;8.398;2022-12-11T15:01:22;43.13;;;22.40;;
8592;SDS011;4334;49.982;8.398;2022-12-11T15:04:00;43.03;;;22.37;;
8592;SDS011;4334;49.982;8.398;2022-12-11T15:06:34;43.50;;;22.37;;
8592;SDS011;4334;49.982;8.398;2022-12-11T15:09:13;43.40;;;22.20;;
8592;SDS011;4334;49.982;8.398;2022-12-11T15:11:43;47.23;;;23.83;;